Mont-Louis, Canada
Current Conditions -  °F | °C
As of 1:24 AM on Thursday 27 Nov 2014 (Local Time) from CYGP Reporting Station
Light Snow Light Snow  
Wind Chill: 20°   Ceiling: 700
Heat Index: 27°   Visibility: 0.62mi
Dew Point: 25°   Wind: 6mph
Humidity: 93%   Direction: 310°NW
Pressure: 30.06"   Gusts: NA
Location:  49.22°N, 65.75°W
Report Text: CYGP 270624Z 31005KT 260V330 5/8SM -SN VV007 M03/M04 A3006 RMK SN8 SLP181
Loading
Personal Weather Stations






























Interactive Weather Map New forecast layout! Learn more

10-Day Weather Forecast

Advertisements
Track Severe Weather on mobile